EST,Max TemperatureF,Mean TemperatureF,Min TemperatureF,Max Dew PointF,MeanDew PointF,Min DewpointF,Max Humidity, Mean Humidity, Min Humidity, Max Sea Level PressureIn, Mean Sea Level PressureIn, Min Sea Level PressureIn, Max VisibilityMiles, Mean VisibilityMiles, Min VisibilityMiles, Max Wind SpeedMPH, Mean Wind SpeedMPH, Max Gust SpeedMPH,PrecipitationIn, CloudCover, Events, WindDirDegrees
2012-11-1,52,49,45,37,37,36,71,65,59,29.57,29.55,29.54,10,10,10,18,8,16,0.00,8,,232
2012-11-2,51,48,46,37,34,30,71,58,44,29.64,29.61,29.58,10,10,10,13,9,20,0.00,8,,272
2012-11-3,52,46,39,30,29,28,65,53,41,29.85,29.82,29.79,10,10,10,16,9,28,0.00,5,,300
2012-11-4,50,42,34,30,29,28,82,64,46,29.98,29.95,29.91,10,10,10,12,7,,0.00,5,,356
2012-11-5,43,39,34,30,22,18,70,55,40,30.09,30.05,30.02,10,10,10,14,6,18,0.00,6,,342
2012-11-6,44,32,20,25,19,16,81,57,33,30.25,30.18,30.13,10,10,10,8,1,10,0.00,0,,352
2012-11-7,38,33,27,28,24,18,92,72,52,30.12,29.95,29.83,10,6,0,21,11,30,0.05,6,Fog-Snow,3
2012-11-8,46,41,35,25,21,18,64,49,34,29.91,29.82,29.76,10,10,10,24,14,33,0.00,7,,354
2012-11-9,56,41,26,33,24,18,81,54,26,30.17,30.05,29.92,10,10,10,14,3,17,0.00,2,,314
2012-11-10,56,46,35,40,36,31,85,70,54,30.41,30.30,30.17,10,10,8,8,1,12,T,6,,249
2012-11-11,65,53,40,46,42,37,86,65,44,30.48,30.43,30.39,10,8,5,9,2,14,0.00,2,,188
2012-11-12,64,51,38,56,46,35,96,82,67,30.45,30.35,30.14,10,7,2,15,5,24,0.00,3,,181
2012-11-13,64,51,37,56,39,24,92,73,53,30.46,30.29,30.06,10,8,2,18,8,25,0.47,8,Rain,357
2012-11-14,47,37,27,26,23,20,85,61,37,30.55,30.50,30.46,10,10,10,16,5,22,0.00,0,,9
2012-11-15,44,35,25,27,24,21,85,67,49,30.48,30.40,30.31,10,10,10,9,2,14,0.00,0,,326
2012-11-16,45,36,26,28,25,22,92,71,49,30.47,30.36,30.31,10,10,9,12,2,15,0.00,0,,330
2012-11-17,50,37,23,30,25,19,88,65,42,30.65,30.59,30.47,10,9,7,12,2,15,0.00,0,,12
2012-11-18,50,36,21,29,25,18,88,67,46,30.69,30.64,30.59,10,8,6,8,1,9,0.00,0,,345
2012-11-19,51,37,22,32,26,19,92,69,46,30.58,30.43,30.26,10,9,5,8,1,15,0.00,0,,288
2012-11-20,47,36,24,30,26,20,92,71,49,30.25,30.18,30.12,10,10,7,5,0,6,0.00,0,Rain,-1
2012-11-21,53,41,28,31,26,23,92,64,35,30.25,30.21,30.16,10,9,7,8,1,12,0.00,0,,349
2012-11-22,55,40,24,35,28,20,88,66,43,30.29,30.21,30.12,10,9,5,6,0,18,0.00,0,,230
2012-11-23,58,42,26,44,34,23,92,66,40,30.10,29.87,29.64,10,8,4,13,2,17,0.02,3,Rain,165
2012-11-24,48,41,34,41,23,15,92,63,33,29.79,29.70,29.63,10,9,1,23,13,32,0.00,5,,282
2012-11-25,40,37,33,23,19,13,61,51,40,29.92,29.86,29.78,10,10,10,20,11,26,0.00,5,,260
2012-11-26,47,37,26,23,20,17,75,53,31,30.24,30.08,29.90,10,10,10,20,6,26,0.00,3,,263
2012-11-27,35,31,27,32,29,21,96,83,69,30.30,30.26,30.22,10,4,0,6,1,7,0.15,8,Fog-Snow,180
2012-11-28,39,35,30,31,25,20,96,74,52,30.23,30.20,30.16,10,8,5,13,4,17,0.00,4,,251
2012-11-29,45,34,23,25,23,21,81,61,40,30.31,30.26,30.21,10,10,9,16,7,22,0.00,0,,229
2012-11-30,37,32,27,26,22,17,85,71,56,30.50,30.41,30.29,10,10,6,13,5,17,0.00,5,,341